Time;durP1;ratioP1;P1;durP2;ratioP2;P2;SDS_P1;SDS_P2;PMS_P1;PMS_P2;Temp;Humidity;BMP_temperature;BMP_pressure;BME280_temperature;BME280_humidity;BME280_pressure;Samples;Min_cycle;Max_cycle;Signal;HPM_P1;HPM_P2
2022/10/31 00:01:29;;;;;;;36.58;8.90;;;9.90;99.90;;;;;;5025955;28;20037;-61
2022/10/31 00:03:54;;;;;;;35.80;9.13;;;9.80;99.90;;;;;;5026499;28;20043;-60
2022/10/31 00:06:21;;;;;;;18.27;8.60;;;9.90;99.90;;;;;;5026737;28;20159;-60
2022/10/31 00:08:52;;;;;;;17.17;8.13;;;9.90;99.90;;;;;;5026209;28;20032;-61
2022/10/31 00:11:18;;;;;;;20.50;7.47;;;9.80;99.90;;;;;;5028021;28;20029;-61
2022/10/31 00:13:43;;;;;;;27.70;6.72;;;9.80;99.90;;;;;;5025286;28;20045;-61
2022/10/31 00:16:20;;;;;;;19.33;6.35;;;9.80;99.90;;;;;;5027014;28;20029;-60
2022/10/31 00:18:50;;;;;;;22.55;5.95;;;9.70;99.90;;;;;;5025551;28;20043;-60
2022/10/31 00:21:15;;;;;;;25.38;6.53;;;9.70;99.90;;;;;;5026838;28;20026;-60
2022/10/31 00:23:41;;;;;;;31.42;6.25;;;9.60;99.90;;;;;;5025400;28;20032;-61
2022/10/31 00:26:07;;;;;;;19.40;6.50;;;9.50;99.90;;;;;;5025171;28;20036;-60
2022/10/31 00:28:33;;;;;;;21.08;7.15;;;9.50;99.90;;;;;;5027188;28;20076;-61
2022/10/31 00:31:03;;;;;;;24.50;7.00;;;9.50;99.90;;;;;;5026869;28;20026;-60
2022/10/31 00:33:29;;;;;;;17.42;6.93;;;9.40;99.90;;;;;;5027289;28;20121;-60
2022/10/31 00:35:55;;;;;;;38.42;7.22;;;9.40;99.90;;;;;;5025196;28;20606;-61
2022/10/31 00:38:20;;;;;;;23.20;7.25;;;9.30;99.90;;;;;;5030731;28;20025;-59
2022/10/31 00:40:46;;;;;;;18.63;7.55;;;9.30;99.90;;;;;;5031466;28;20025;-60
2022/10/31 00:43:12;;;;;;;19.33;6.10;;;9.30;99.90;;;;;;5029892;28;20029;-60
2022/10/31 00:45:37;;;;;;;18.92;6.75;;;9.20;99.90;;;;;;5027424;28;20104;-60
2022/10/31 00:48:04;;;;;;;21.40;8.10;;;9.20;99.90;;;;;;5029096;28;20076;-60
2022/10/31 00:50:30;;;;;;;23.02;8.80;;;9.10;99.90;;;;;;5030908;28;20029;-60
2022/10/31 00:52:56;;;;;;;46.25;8.85;;;9.10;99.90;;;;;;5030825;28;20499;-60
2022/10/31 00:55:22;;;;;;;70.45;9.15;;;9.10;99.90;;;;;;5028607;28;20036;-60
2022/10/31 00:57:47;;;;;;;94.43;11.25;;;9.10;99.90;;;;;;5030709;28;20037;-61
2022/10/31 01:00:14;;;;;;;200.85;13.32;;;9.10;99.90;;;;;;5030691;28;20026;-60
2022/10/31 01:02:39;;;;;;;101.10;10.75;;;9.10;99.90;;;;;;5031496;28;20537;-60
2022/10/31 01:05:05;;;;;;;90.40;9.55;;;9.10;99.90;;;;;;5032011;28;20040;-61
2022/10/31 01:07:31;;;;;;;37.92;8.73;;;9.10;99.90;;;;;;5030487;28;20021;-61
2022/10/31 01:09:56;;;;;;;75.72;9.60;;;9.10;99.90;;;;;;5029659;28;20030;-60
2022/10/31 01:12:22;;;;;;;35.00;8.55;;;9.10;99.90;;;;;;5028564;28;20044;-61
2022/10/31 01:14:47;;;;;;;22.85;8.20;;;9.10;99.90;;;;;;5030876;28;20037;-60
2022/10/31 01:17:13;;;;;;;28.83;8.70;;;9.00;99.90;;;;;;5030756;28;20109;-60
2022/10/31 01:19:39;;;;;;;24.38;7.82;;;9.00;99.90;;;;;;5029180;28;20494;-60
2022/10/31 01:22:05;;;;;;;56.72;9.80;;;9.00;99.90;;;;;;5030749;28;20026;-60
2022/10/31 01:24:31;;;;;;;30.02;7.70;;;9.00;99.90;;;;;;5028696;28;20021;-61
2022/10/31 01:26:56;;;;;;;34.55;8.05;;;8.90;99.90;;;;;;5028936;28;20033;-61
2022/10/31 01:29:22;;;;;;;27.75;6.80;;;8.90;99.90;;;;;;5030601;28;20056;-60
2022/10/31 01:31:48;;;;;;;21.27;7.88;;;8.80;99.90;;;;;;5029288;28;20424;-61
2022/10/31 01:34:16;;;;;;;43.38;7.88;;;8.70;99.90;;;;;;5030250;28;20049;-60
2022/10/31 01:36:44;;;;;;;42.22;8.15;;;8.60;99.90;;;;;;5030195;28;20080;-61
2022/10/31 01:39:15;;;;;;;29.55;8.45;;;8.60;99.90;;;;;;5031191;28;20029;-61
2022/10/31 01:41:43;;;;;;;32.63;7.05;;;8.60;99.90;;;;;;5027825;28;20029;-60
2022/10/31 01:44:15;;;;;;;30.08;7.53;;;8.50;99.90;;;;;;5028032;28;20020;-60
2022/10/31 01:46:45;;;;;;;54.38;8.23;;;8.50;99.90;;;;;;5029436;28;20036;-60
2022/10/31 01:49:33;;;;;;;47.47;7.38;;;8.50;99.90;;;;;;5029163;28;20029;-61
2022/10/31 01:52:05;;;;;;;59.47;8.35;;;8.50;99.90;;;;;;5028086;28;20752;-60
2022/10/31 01:54:35;;;;;;;37.63;7.35;;;8.40;99.90;;;;;;5029683;28;20159;-60
2022/10/31 01:57:02;;;;;;;31.92;7.53;;;8.40;99.90;;;;;;5028844;28;20041;-61
2022/10/31 01:59:30;;;;;;;29.48;8.15;;;8.40;99.90;;;;;;5029402;28;20033;-61
2022/10/31 02:01:56;;;;;;;16.10;6.35;;;8.40;99.90;;;;;;5025890;28;20074;-60
2022/10/31 02:04:24;;;;;;;21.65;6.65;;;8.40;99.90;;;;;;5028512;28;20148;-60
2022/10/31 02:06:56;;;;;;;10.75;6.28;;;8.40;99.90;;;;;;5029754;28;20128;-60
2022/10/31 02:09:23;;;;;;;27.38;6.65;;;8.40;99.90;;;;;;5028259;28;20405;-60
2022/10/31 02:11:55;;;;;;;38.22;7.50;;;8.40;99.90;;;;;;5028768;28;20030;-60
2022/10/31 02:14:26;;;;;;;99.30;7.82;;;8.40;99.90;;;;;;5029868;28;20037;-60
2022/10/31 02:16:53;;;;;;;200.07;11.80;;;8.40;99.90;;;;;;5028773;28;20025;-60
2022/10/31 02:19:34;;;;;;;175.18;11.20;;;8.40;99.90;;;;;;5028581;28;20030;-60
2022/10/31 02:22:24;;;;;;;114.78;9.85;;;8.40;99.90;;;;;;5028377;28;20032;-60
2022/10/31 02:25:08;;;;;;;79.53;9.02;;;8.40;99.90;;;;;;5028505;28;20515;-63
2022/10/31 02:27:34;;;;;;;53.10;7.82;;;8.40;99.90;;;;;;5028921;28;20038;-60
2022/10/31 02:30:18;;;;;;;28.25;6.80;;;8.40;99.90;;;;;;5029342;28;20042;-59
2022/10/31 02:33:04;;;;;;;50.67;7.15;;;8.30;99.90;;;;;;5028878;28;20022;-60
2022/10/31 02:35:40;;;;;;;37.38;7.30;;;8.30;99.90;;;;;;5029108;28;20139;-59
2022/10/31 02:38:34;;;;;;;18.55;7.70;;;8.20;99.90;;;;;;5028692;28;20033;-60
2022/10/31 02:41:37;;;;;;;6.80;5.78;;;8.20;99.90;;;;;;5028067;28;20033;-59
2022/10/31 02:44:22;;;;;;;6.32;5.78;;;8.10;99.90;;;;;;5027619;28;20018;-60
2022/10/31 02:46:54;;;;;;;13.40;6.65;;;8.10;99.90;;;;;;5027794;28;20501;-60
2022/10/31 02:49:42;;;;;;;10.40;6.57;;;8.00;99.90;;;;;;5029137;28;20029;-60
2022/10/31 02:52:27;;;;;;;11.68;6.57;;;8.00;99.90;;;;;;5026659;28;20049;-60
2022/10/31 02:54:53;;;;;;;9.50;6.45;;;7.90;99.90;;;;;;5029086;28;20436;-60
2022/10/31 02:57:24;;;;;;;16.17;6.65;;;7.80;99.90;;;;;;5027044;28;20036;-60
2022/10/31 02:59:57;;;;;;;13.70;6.40;;;7.80;99.90;;;;;;5028255;28;20075;-60
2022/10/31 03:02:32;;;;;;;14.77;6.20;;;7.80;99.90;;;;;;5027339;28;20071;-59
2022/10/31 03:05:17;;;;;;;11.13;6.25;;;7.70;99.90;;;;;;5028682;28;20030;-60
2022/10/31 03:08:13;;;;;;;15.07;6.82;;;7.70;99.90;;;;;;5028144;28;20124;-60
2022/10/31 03:10:45;;;;;;;11.02;6.45;;;7.70;99.90;;;;;;5030067;28;20126;-59
2022/10/31 03:13:20;;;;;;;7.47;5.95;;;7.70;99.90;;;;;;5029674;28;20472;-62
2022/10/31 03:15:50;;;;;;;9.90;6.30;;;7.70;99.90;;;;;;5027316;28;20517;-60
2022/10/31 03:18:28;;;;;;;15.55;5.70;;;7.80;99.90;;;;;;5026369;28;20080;-61
2022/10/31 03:21:27;;;;;;;33.20;7.43;;;7.80;99.90;;;;;;5022769;28;20047;-60
2022/10/31 03:23:55;;;;;;;29.17;6.82;;;7.80;99.90;;;;;;5031321;28;20018;-60
2022/10/31 03:26:23;;;;;;;36.38;7.70;;;7.80;99.90;;;;;;5027515;28;20076;-60
2022/10/31 03:28:59;;;;;;;45.85;7.30;;;7.80;99.90;;;;;;5025968;28;20068;-60
2022/10/31 03:31:32;;;;;;;25.52;7.03;;;7.80;99.90;;;;;;5025721;28;20048;-60
2022/10/31 03:34:00;;;;;;;33.28;6.70;;;7.80;99.90;;;;;;5030370;28;20171;-59
2022/10/31 03:36:26;;;;;;;34.90;6.70;;;7.70;99.90;;;;;;5028115;28;20033;-60
2022/10/31 03:38:53;;;;;;;33.13;6.88;;;7.70;99.90;;;;;;5025712;28;20029;-60
2022/10/31 03:41:23;;;;;;;18.85;6.32;;;7.70;99.90;;;;;;5026488;28;20025;-60
2022/10/31 03:43:57;;;;;;;9.68;5.35;;;7.70;99.90;;;;;;5026072;28;20030;-60
2022/10/31 03:46:23;;;;;;;15.20;6.10;;;7.60;99.90;;;;;;5026900;28;20025;-60
2022/10/31 03:48:49;;;;;;;18.88;5.93;;;7.60;99.90;;;;;;5028165;28;20164;-59
2022/10/31 03:51:19;;;;;;;21.17;5.88;;;7.50;99.90;;;;;;5026689;28;20043;-60
2022/10/31 03:54:01;;;;;;;8.98;6.07;;;7.50;99.90;;;;;;5027741;28;20052;-60
2022/10/31 03:57:04;;;;;;;10.15;4.68;;;7.40;99.90;;;;;;5026991;28;20112;-60
2022/10/31 03:59:36;;;;;;;68.25;8.40;;;7.40;99.90;;;;;;5024249;28;20859;-61
2022/10/31 04:02:07;;;;;;;8.70;6.07;;;7.30;99.90;;;;;;5024383;28;20048;-61
2022/10/31 04:04:35;;;;;;;16.38;6.82;;;7.30;99.90;;;;;;5027312;28;20437;-61
2022/10/31 04:07:02;;;;;;;7.28;6.53;;;7.30;99.90;;;;;;5025963;28;20034;-60
2022/10/31 04:09:29;;;;;;;16.20;6.40;;;7.30;99.90;;;;;;5024065;28;20863;-62
2022/10/31 04:11:58;;;;;;;18.63;6.82;;;7.30;99.90;;;;;;5025537;28;20071;-59
2022/10/31 04:14:27;;;;;;;34.75;6.72;;;7.20;99.90;;;;;;5023759;28;20555;-59
2022/10/31 04:16:53;;;;;;;13.82;6.30;;;7.20;99.90;;;;;;5025936;28;20030;-60
2022/10/31 04:19:19;;;;;;;11.45;6.43;;;7.20;99.90;;;;;;5027295;28;20480;-60
2022/10/31 04:21:45;;;;;;;7.38;6.20;;;7.20;99.90;;;;;;5027516;28;20148;-61
2022/10/31 04:24:11;;;;;;;16.10;6.45;;;7.20;99.90;;;;;;5026976;28;20421;-60
2022/10/31 04:26:37;;;;;;;19.88;6.60;;;7.20;99.90;;;;;;5025321;28;20120;-60
2022/10/31 04:29:02;;;;;;;64.18;7.63;;;7.20;99.90;;;;;;5027458;28;20180;-60
2022/10/31 04:31:28;;;;;;;48.05;8.10;;;7.20;99.90;;;;;;5024753;28;20037;-60
2022/10/31 04:33:54;;;;;;;54.80;8.45;;;7.20;99.90;;;;;;5026970;28;20030;-60
2022/10/31 04:36:20;;;;;;;67.05;9.38;;;7.20;99.90;;;;;;5026483;28;20072;-61
2022/10/31 04:38:45;;;;;;;40.42;7.53;;;7.20;99.90;;;;;;5027424;28;20076;-59
2022/10/31 04:41:11;;;;;;;21.30;6.65;;;7.20;99.90;;;;;;5026372;28;20025;-60
2022/10/31 04:43:37;;;;;;;28.70;5.75;;;7.10;99.90;;;;;;5026021;28;20036;-60
2022/10/31 04:46:02;;;;;;;20.17;6.00;;;7.10;99.90;;;;;;5026951;28;20095;-61
2022/10/31 04:48:28;;;;;;;13.35;6.28;;;7.10;99.90;;;;;;5026549;28;20044;-61
2022/10/31 04:51:02;;;;;;;20.85;6.68;;;7.10;99.90;;;;;;5025675;28;20021;-60
2022/10/31 04:53:28;;;;;;;22.85;7.13;;;7.10;99.90;;;;;;5032626;28;20006;-60
2022/10/31 04:55:54;;;;;;;32.47;6.68;;;7.00;99.90;;;;;;5027749;28;20045;-59
2022/10/31 04:58:20;;;;;;;15.73;6.43;;;7.00;99.90;;;;;;5026388;28;20021;-60
2022/10/31 05:00:46;;;;;;;17.73;6.30;;;7.00;99.90;;;;;;5025326;28;20037;-60
2022/10/31 05:03:12;;;;;;;10.35;6.00;;;7.00;99.90;;;;;;5027528;28;20025;-60
2022/10/31 05:05:37;;;;;;;10.18;6.97;;;7.00;99.90;;;;;;5027933;28;20026;-60
2022/10/31 05:08:03;;;;;;;10.30;6.93;;;7.00;99.90;;;;;;5025876;28;20048;-60
2022/10/31 05:10:30;;;;;;;25.17;7.53;;;7.00;99.90;;;;;;5025896;28;20091;-60
2022/10/31 05:12:58;;;;;;;65.97;8.48;;;7.00;99.90;;;;;;5025071;28;20029;-60
2022/10/31 05:15:25;;;;;;;10.63;6.55;;;7.00;99.90;;;;;;5026196;28;20041;-60
2022/10/31 05:17:51;;;;;;;14.15;7.13;;;7.10;99.90;;;;;;5026802;28;20049;-62
2022/10/31 05:20:18;;;;;;;30.77;7.68;;;7.10;99.90;;;;;;5023692;28;20052;-60
2022/10/31 05:22:50;;;;;;;12.40;7.55;;;7.10;99.90;;;;;;5026424;28;20044;-59
2022/10/31 05:25:17;;;;;;;8.07;7.30;;;7.20;99.90;;;;;;5029427;28;20108;-60
2022/10/31 05:27:45;;;;;;;22.15;7.70;;;7.20;99.90;;;;;;5030523;28;20021;-60
2022/10/31 05:30:12;;;;;;;42.50;8.77;;;7.30;99.90;;;;;;5028868;28;20034;-60
2022/10/31 05:32:43;;;;;;;54.78;9.27;;;7.40;99.90;;;;;;5029706;28;20476;-61
2022/10/31 05:35:15;;;;;;;95.30;11.30;;;7.40;99.90;;;;;;5029389;28;20049;-60
2022/10/31 05:37:41;;;;;;;72.50;12.30;;;7.50;99.90;;;;;;5028217;28;20025;-60
2022/10/31 05:40:09;;;;;;;29.45;8.75;;;7.50;99.90;;;;;;5028204;28;20121;-59
2022/10/31 05:42:35;;;;;;;123.25;11.68;;;7.50;99.90;;;;;;5025660;28;20098;-61
2022/10/31 05:45:00;;;;;;;55.90;8.32;;;7.40;99.90;;;;;;5029541;28;20468;-60
2022/10/31 05:47:26;;;;;;;41.08;8.57;;;7.30;99.90;;;;;;5029209;28;20033;-61
2022/10/31 05:49:52;;;;;;;44.25;7.93;;;7.30;99.90;;;;;;5029963;28;20036;-60
2022/10/31 05:52:17;;;;;;;72.28;7.57;;;7.20;99.90;;;;;;5028655;28;20022;-60
2022/10/31 05:54:43;;;;;;;49.60;7.38;;;7.10;99.90;;;;;;5030323;28;20025;-60
2022/10/31 05:57:09;;;;;;;34.00;6.32;;;7.00;99.90;;;;;;5025855;28;20029;-61
2022/10/31 05:59:34;;;;;;;47.03;7.07;;;6.90;99.90;;;;;;5028992;28;20028;-61
2022/10/31 06:02:00;;;;;;;51.70;8.02;;;6.90;99.90;;;;;;5029768;28;20033;-60
2022/10/31 06:04:26;;;;;;;34.40;8.20;;;6.80;99.90;;;;;;5029351;28;20104;-60
2022/10/31 06:06:51;;;;;;;49.70;7.43;;;6.80;99.90;;;;;;5029053;28;20028;-59
2022/10/31 06:09:17;;;;;;;56.78;8.70;;;6.80;99.90;;;;;;5028286;28;20140;-60
2022/10/31 06:11:43;;;;;;;110.03;9.70;;;6.90;99.90;;;;;;5029854;28;20108;-61
2022/10/31 06:14:08;;;;;;;58.67;8.68;;;6.90;99.90;;;;;;5029450;28;20473;-61
2022/10/31 06:16:34;;;;;;;57.35;8.80;;;6.90;99.90;;;;;;5029435;28;20038;-60
2022/10/31 06:18:59;;;;;;;53.45;8.02;;;7.00;99.90;;;;;;5014183;28;20061;-59
2022/10/31 06:21:25;;;;;;;30.30;8.10;;;7.00;99.90;;;;;;5027904;28;20030;-60
2022/10/31 06:23:51;;;;;;;108.43;11.05;;;7.10;99.90;;;;;;5029079;28;20017;-60
2022/10/31 06:26:17;;;;;;;37.20;8.52;;;7.20;99.90;;;;;;5028633;28;20009;-60
2022/10/31 06:28:42;;;;;;;112.32;11.10;;;7.20;99.90;;;;;;5028072;28;20049;-60
2022/10/31 06:31:08;;;;;;;64.15;8.55;;;7.20;99.90;;;;;;5028826;28;20033;-60
2022/10/31 06:33:34;;;;;;;72.03;8.98;;;7.20;99.90;;;;;;5027512;28;20038;-60
2022/10/31 06:35:59;;;;;;;33.97;7.60;;;7.20;99.90;;;;;;5027616;28;20075;-60
2022/10/31 06:38:26;;;;;;;32.00;7.28;;;7.30;99.90;;;;;;5027949;28;20025;-60
2022/10/31 06:40:53;;;;;;;60.40;8.00;;;7.30;99.90;;;;;;5026668;28;20140;-60
2022/10/31 06:43:19;;;;;;;50.17;7.70;;;7.40;99.90;;;;;;5025773;28;20072;-60
2022/10/31 06:45:45;;;;;;;33.05;6.97;;;7.40;99.90;;;;;;5027668;28;20036;-60
2022/10/31 06:48:10;;;;;;;68.18;8.50;;;7.50;99.90;;;;;;5026825;28;20124;-60
2022/10/31 06:50:36;;;;;;;32.08;7.43;;;7.50;99.90;;;;;;5028107;28;20060;-60
2022/10/31 06:53:02;;;;;;;57.22;8.57;;;7.60;99.90;;;;;;5027479;28;20037;-59
2022/10/31 06:55:27;;;;;;;62.45;7.85;;;7.70;99.90;;;;;;5016563;28;20706;-61
2022/10/31 06:57:57;;;;;;;28.13;6.75;;;7.70;99.90;;;;;;5025790;28;20037;-61
2022/10/31 07:00:24;;;;;;;44.85;7.18;;;7.70;99.90;;;;;;5025277;28;20026;-60
2022/10/31 07:02:58;;;;;;;32.78;6.80;;;7.80;99.90;;;;;;5028100;28;20036;-60
2022/10/31 07:05:24;;;;;;;28.88;6.85;;;7.80;99.90;;;;;;5028636;28;20044;-59
2022/10/31 07:08:02;;;;;;;29.52;7.00;;;7.90;99.90;;;;;;5024970;28;20026;-62
2022/10/31 07:10:30;;;;;;;18.73;5.82;;;8.00;99.90;;;;;;5025660;28;20037;-61
2022/10/31 07:13:00;;;;;;;47.50;6.32;;;8.10;99.90;;;;;;5027675;28;20031;-60
2022/10/31 07:15:28;;;;;;;29.08;6.45;;;8.20;99.90;;;;;;5024834;28;20026;-62
2022/10/31 07:17:53;;;;;;;30.20;6.55;;;8.30;99.90;;;;;;5026615;28;20017;-59
2022/10/31 07:20:19;;;;;;;29.02;6.15;;;8.40;99.90;;;;;;5028901;28;20025;-61
2022/10/31 07:22:45;;;;;;;72.20;6.72;;;8.60;99.90;;;;;;5026514;28;20026;-60
2022/10/31 07:25:11;;;;;;;73.57;6.65;;;8.70;99.90;;;;;;5027842;28;20025;-61
2022/10/31 07:27:42;;;;;;;36.03;5.45;;;8.80;99.90;;;;;;5028426;28;20036;-61
2022/10/31 07:30:10;;;;;;;25.88;5.10;;;8.90;99.90;;;;;;5027501;28;20038;-60
2022/10/31 07:32:44;;;;;;;115.13;6.30;;;9.00;99.90;;;;;;5028872;28;20025;-61
2022/10/31 07:35:18;;;;;;;50.83;5.55;;;9.10;99.90;;;;;;5025899;28;20124;-61
2022/10/31 07:37:44;;;;;;;27.55;4.97;;;9.20;99.90;;;;;;5027770;28;20045;-60
2022/10/31 07:40:11;;;;;;;14.80;5.03;;;9.30;99.90;;;;;;5027709;28;20569;-61
2022/10/31 07:42:41;;;;;;;24.63;4.82;;;9.50;99.90;;;;;;5027756;28;20083;-60
2022/10/31 07:45:09;;;;;;;30.17;4.30;;;9.60;99.90;;;;;;5026867;28;20104;-60
2022/10/31 07:47:43;;;;;;;16.38;4.63;;;9.60;99.90;;;;;;5027079;28;20068;-60
2022/10/31 07:50:10;;;;;;;37.80;4.75;;;9.70;99.90;;;;;;5027829;28;20034;-58
2022/10/31 07:52:36;;;;;;;8.50;4.63;;;9.80;99.90;;;;;;5027373;28;20112;-61
2022/10/31 07:55:02;;;;;;;5.40;4.40;;;9.90;99.90;;;;;;5026566;28;20145;-60
2022/10/31 07:57:28;;;;;;;18.60;4.53;;;10.00;99.90;;;;;;5026975;28;20022;-60
2022/10/31 07:59:53;;;;;;;8.55;4.47;;;9.90;99.90;;;;;;5027561;28;20569;-59
2022/10/31 08:02:19;;;;;;;4.85;4.40;;;9.90;99.90;;;;;;5028108;28;20508;-61
2022/10/31 08:04:45;;;;;;;4.57;4.07;;;10.00;99.90;;;;;;5026519;28;20504;-60
2022/10/31 08:07:10;;;;;;;5.25;4.35;;;10.10;99.90;;;;;;5026697;28;20034;-60
2022/10/31 08:09:36;;;;;;;5.10;4.70;;;10.20;99.90;;;;;;5027501;28;20048;-61
2022/10/31 08:12:02;;;;;;;5.68;4.82;;;10.30;99.90;;;;;;5027145;28;20095;-60
2022/10/31 08:14:28;;;;;;;4.60;4.20;;;10.40;99.90;;;;;;5028210;28;20025;-60
2022/10/31 08:16:54;;;;;;;5.30;3.70;;;10.50;99.90;;;;;;5026992;28;20075;-60
2022/10/31 08:19:19;;;;;;;5.15;4.75;;;10.50;99.90;;;;;;5026578;28;20037;-60
2022/10/31 08:21:45;;;;;;;12.43;5.03;;;10.50;99.90;;;;;;5026948;28;20037;-60
2022/10/31 08:24:11;;;;;;;16.80;4.40;;;10.40;99.90;;;;;;5026839;28;20520;-61
2022/10/31 08:26:37;;;;;;;4.68;4.22;;;10.50;99.90;;;;;;5028034;28;20083;-61
2022/10/31 08:29:03;;;;;;;18.73;4.75;;;10.50;99.90;;;;;;5026355;28;20061;-60
2022/10/31 08:31:29;;;;;;;4.53;3.90;;;10.60;99.90;;;;;;5027342;28;20025;-61
2022/10/31 08:33:55;;;;;;;4.80;4.43;;;10.80;99.90;;;;;;5025998;28;20026;-60
2022/10/31 08:36:21;;;;;;;4.43;4.13;;;11.00;99.90;;;;;;5026374;28;20021;-61
2022/10/31 08:38:47;;;;;;;254.93;12.80;;;11.10;99.90;;;;;;5026488;28;20101;-62
2022/10/31 08:41:13;;;;;;;4.40;4.10;;;11.20;99.90;;;;;;5028056;28;20095;-61
2022/10/31 08:43:39;;;;;;;4.30;4.00;;;11.10;99.90;;;;;;5026320;28;20018;-61
2022/10/31 08:46:05;;;;;;;4.35;4.05;;;11.20;99.90;;;;;;5025426;28;20033;-60
2022/10/31 08:48:31;;;;;;;4.40;4.00;;;11.30;99.90;;;;;;5026249;28;20083;-61
2022/10/31 08:50:58;;;;;;;4.28;3.90;;;11.30;99.90;;;;;;5026962;28;20046;-61
2022/10/31 08:53:24;;;;;;;6.95;4.13;;;11.40;99.90;;;;;;5026330;28;20022;-61
2022/10/31 08:55:50;;;;;;;4.63;4.22;;;11.60;99.90;;;;;;5025708;28;20072;-61
2022/10/31 08:58:18;;;;;;;4.15;3.85;;;12.10;99.90;;;;;;5028046;28;20029;-59
2022/10/31 09:00:45;;;;;;;5.43;3.60;;;12.80;99.90;;;;;;5030560;28;20040;-60
2022/10/31 09:03:16;;;;;;;5.07;3.28;;;13.80;99.90;;;;;;5029895;28;20049;-59
2022/10/31 09:05:42;;;;;;;3.42;3.13;;;14.90;99.90;;;;;;5029661;28;20078;-60
2022/10/31 09:08:08;;;;;;;3.80;3.40;;;15.90;99.90;;;;;;5029528;28;20029;-59
2022/10/31 09:10:36;;;;;;;4.03;3.03;;;17.00;99.90;;;;;;5025364;28;20045;-61
2022/10/31 09:13:10;;;;;;;5.30;3.47;;;18.10;99.90;;;;;;5028807;28;20121;-60
2022/10/31 09:15:38;;;;;;;3.58;3.25;;;18.80;99.90;;;;;;5028598;28;20068;-60
2022/10/31 09:18:04;;;;;;;3.50;2.92;;;19.60;99.90;;;;;;5029260;28;20899;-60
2022/10/31 09:20:31;;;;;;;3.38;3.00;;;20.10;99.90;;;;;;5026094;28;20025;-60
2022/10/31 09:22:59;;;;;;;3.95;3.35;;;20.80;99.90;;;;;;5029150;28;20042;-60
2022/10/31 09:25:25;;;;;;;3.78;2.95;;;21.30;99.90;;;;;;5028631;28;20049;-60
2022/10/31 09:27:51;;;;;;;3.33;2.80;;;21.60;99.90;;;;;;5029040;28;20397;-60
2022/10/31 09:30:16;;;;;;;3.17;2.75;;;21.80;99.90;;;;;;5027262;28;20034;-60
2022/10/31 09:32:42;;;;;;;3.53;3.00;;;21.50;99.90;;;;;;5028106;28;20017;-61
2022/10/31 09:35:08;;;;;;;3.33;3.03;;;21.60;99.90;;;;;;5029084;28;20033;-60
2022/10/31 09:37:33;;;;;;;3.60;3.28;;;21.40;99.90;;;;;;5026150;28;20030;-60
2022/10/31 09:39:59;;;;;;;3.63;3.33;;;21.60;99.90;;;;;;5026794;28;20092;-59
2022/10/31 09:42:37;;;;;;;3.70;2.80;;;21.60;99.90;;;;;;5028798;28;20512;-60
2022/10/31 09:45:02;;;;;;;3.60;2.65;;;21.80;99.90;;;;;;5025042;28;20037;-59
2022/10/31 09:47:34;;;;;;;3.55;2.58;;;21.90;99.90;;;;;;5027515;28;20592;-60
2022/10/31 09:50:14;;;;;;;4.53;3.55;;;22.00;99.90;;;;;;5028193;28;20128;-59
2022/10/31 09:52:47;;;;;;;5.28;2.72;;;22.00;99.90;;;;;;5028272;28;20083;-60
2022/10/31 09:55:20;;;;;;;3.97;3.42;;;21.90;99.90;;;;;;5021856;28;20044;-60
2022/10/31 09:57:47;;;;;;;3.50;3.20;;;21.80;99.90;;;;;;5028260;28;20033;-60
2022/10/31 10:00:21;;;;;;;4.43;4.03;;;21.60;99.90;;;;;;5029230;28;20084;-60
2022/10/31 10:03:11;;;;;;;4.45;2.85;;;21.00;99.90;;;;;;5026227;28;20021;-60
2022/10/31 10:05:46;;;;;;;4.10;3.67;;;20.80;99.90;;;;;;5028377;28;20029;-60
2022/10/31 10:08:26;;;;;;;4.55;3.63;;;20.50;99.90;;;;;;5027542;28;20045;-59
2022/10/31 10:11:15;;;;;;;6.53;4.15;;;20.40;99.90;;;;;;5026174;28;20037;-59
2022/10/31 10:14:03;;;;;;;6.03;3.80;;;20.20;99.90;;;;;;5024666;28;20540;-60
2022/10/31 10:16:33;;;;;;;8.07;4.00;;;19.80;99.90;;;;;;5024528;28;20168;-59
2022/10/31 10:19:24;;;;;;;5.28;3.90;;;19.40;99.90;;;;;;5026521;28;20042;-58
2022/10/31 10:22:11;;;;;;;6.63;4.32;;;19.10;99.90;;;;;;5026826;28;20034;-60
2022/10/31 10:25:15;;;;;;;7.68;4.07;;;18.90;99.90;;;;;;5027147;28;20057;-60
2022/10/31 10:28:02;;;;;;;5.82;4.30;;;18.80;99.90;;;;;;4979821;28;20443;-59
2022/10/31 10:30:50;;;;;;;6.90;4.45;;;19.00;99.90;;;;;;4980192;28;20738;-60
2022/10/31 10:33:19;;;;;;;6.95;3.90;;;19.00;99.90;;;;;;5014856;28;20030;-60
2022/10/31 10:35:57;;;;;;;9.82;4.95;;;18.90;99.90;;;;;;5027072;28;20103;-59
2022/10/31 10:38:47;;;;;;;6.57;5.00;;;19.00;99.90;;;;;;5026444;28;20029;-60
2022/10/31 10:41:22;;;;;;;6.43;4.40;;;18.90;99.90;;;;;;5027437;28;20051;-59
2022/10/31 10:43:52;;;;;;;5.80;5.07;;;18.80;99.90;;;;;;5026984;28;20071;-60
2022/10/31 10:49:18;;;;;;;9.68;4.75;;;19.10;99.90;;;;;;5024712;28;20564;-59
2022/10/31 10:51:44;;;;;;;8.98;4.47;;;19.20;99.90;;;;;;5022401;28;20030;-59
2022/10/31 10:54:27;;;;;;;7.10;4.65;;;19.20;99.90;;;;;;5024413;28;20026;-57
2022/10/31 10:57:08;;;;;;;9.68;5.28;;;19.40;99.90;;;;;;5028167;28;20028;-59
2022/10/31 10:59:34;;;;;;;10.10;4.97;;;19.50;99.90;;;;;;5025799;28;20087;-59
2022/10/31 11:02:00;;;;;;;9.02;4.70;;;19.40;99.90;;;;;;5026069;28;20375;-60
2022/10/31 11:04:39;;;;;;;10.43;5.10;;;19.40;99.90;;;;;;5027149;28;20037;-60
2022/10/31 11:07:08;;;;;;;9.13;5.00;;;19.40;99.90;;;;;;5027038;28;20036;-59
2022/10/31 11:09:35;;;;;;;8.45;5.18;;;19.40;99.90;;;;;;5027068;28;20880;-61
2022/10/31 11:12:15;;;;;;;5.95;4.47;;;19.40;99.90;;;;;;5026139;28;20068;-59
2022/10/31 11:14:48;;;;;;;7.43;5.18;;;19.50;99.90;;;;;;5026596;28;20095;-59
2022/10/31 11:17:27;;;;;;;6.60;4.80;;;19.50;99.90;;;;;;5026018;28;20053;-60
2022/10/31 11:20:19;;;;;;;6.35;4.53;;;19.60;99.90;;;;;;5026270;28;20053;-59
2022/10/31 11:22:47;;;;;;;10.45;5.63;;;19.50;99.90;;;;;;5022338;28;20032;-59
2022/10/31 11:25:26;;;;;;;7.95;5.18;;;19.40;99.90;;;;;;5027494;28;20083;-59
2022/10/31 11:28:08;;;;;;;9.73;5.25;;;19.30;99.90;;;;;;5027007;28;20029;-60
2022/10/31 11:30:50;;;;;;;7.43;5.20;;;19.40;99.90;;;;;;5026182;28;20412;-59
2022/10/31 11:33:21;;;;;;;8.27;5.30;;;19.40;99.90;;;;;;5027632;28;20519;-59
2022/10/31 11:35:48;;;;;;;7.70;5.47;;;19.50;99.90;;;;;;5024008;28;20025;-60
2022/10/31 11:38:19;;;;;;;11.02;5.10;;;19.60;99.90;;;;;;5026607;28;20045;-58
2022/10/31 11:40:55;;;;;;;8.90;5.25;;;19.60;99.90;;;;;;5025302;28;20041;-59
2022/10/31 11:43:22;;;;;;;9.10;5.47;;;19.60;99.90;;;;;;5026503;28;20037;-59
2022/10/31 11:45:48;;;;;;;7.80;4.55;;;19.60;99.90;;;;;;5025761;28;20120;-59
2022/10/31 11:48:18;;;;;;;9.45;5.05;;;19.70;99.90;;;;;;5027705;28;20112;-59
2022/10/31 11:50:52;;;;;;;;;;;19.80;99.90;;;;;;5026218;28;20468;-59
2022/10/31 11:53:24;;;;;;;7.50;4.70;;;19.80;99.90;;;;;;5026457;28;19905;-59
2022/10/31 11:56:04;;;;;;;8.63;4.70;;;19.80;99.90;;;;;;5026496;28;20108;-59
2022/10/31 11:58:30;;;;;;;8.53;4.43;;;19.90;99.90;;;;;;5026206;28;20028;-59
2022/10/31 12:00:57;;;;;;;7.57;4.65;;;20.00;99.90;;;;;;5026238;28;20018;-59
2022/10/31 12:03:22;;;;;;;5.35;4.85;;;20.20;99.90;;;;;;5026429;28;20505;-59
2022/10/31 12:06:03;;;;;;;8.35;5.00;;;20.30;99.90;;;;;;5026414;28;20021;-60
2022/10/31 12:08:36;;;;;;;10.57;4.78;;;20.40;99.90;;;;;;5026486;28;20014;-58
2022/10/31 12:11:15;;;;;;;7.95;4.97;;;20.50;99.90;;;;;;5025897;28;20533;-59
2022/10/31 12:13:50;;;;;;;5.47;4.22;;;20.40;99.90;;;;;;5025849;28;20030;-60
2022/10/31 12:16:26;;;;;;;8.50;5.60;;;20.30;99.90;;;;;;5023009;28;20714;-59
2022/10/31 12:19:09;;;;;;;10.32;4.95;;;20.20;99.90;;;;;;5024922;28;20034;-59
2022/10/31 12:21:53;;;;;;;10.93;4.50;;;20.10;99.90;;;;;;5023808;28;20120;-59
2022/10/31 12:24:35;;;;;;;9.95;5.82;;;20.10;99.90;;;;;;5024086;28;20036;-59
2022/10/31 12:27:15;;;;;;;10.35;4.47;;;20.00;99.90;;;;;;5024715;28;20062;-58
2022/10/31 12:30:08;;;;;;;10.60;5.73;;;20.00;99.90;;;;;;5025763;28;20064;-59
2022/10/31 12:32:55;;;;;;;9.98;6.43;;;19.90;99.90;;;;;;5025555;28;20268;-59
2022/10/31 12:35:21;;;;;;;8.50;5.30;;;19.90;99.90;;;;;;5018767;28;20405;-59
2022/10/31 12:37:55;;;;;;;9.85;5.35;;;19.80;99.90;;;;;;5030080;28;20026;-59
2022/10/31 12:40:24;;;;;;;8.40;5.53;;;19.80;99.90;;;;;;5028871;28;20025;-59
2022/10/31 12:42:58;;;;;;;13.43;6.50;;;19.80;99.90;;;;;;5029989;28;20078;-59
2022/10/31 12:45:54;;;;;;;8.88;5.78;;;19.80;99.90;;;;;;5028558;28;20040;-59
2022/10/31 12:48:46;;;;;;;8.70;5.25;;;19.80;99.90;;;;;;5027272;28;20017;-59
2022/10/31 12:51:23;;;;;;;11.05;5.70;;;19.80;99.90;;;;;;5029387;28;20057;-59
2022/10/31 12:54:46;;;;;;;9.45;5.38;;;19.90;99.90;;;;;;5028013;28;20087;-59
2022/10/31 12:57:42;;;;;;;11.02;5.15;;;20.00;99.90;;;;;;4953231;28;20392;-59
2022/10/31 13:00:16;;;;;;;6.82;5.32;;;20.20;99.90;;;;;;4959115;28;20089;-59
2022/10/31 13:02:45;;;;;;;6.18;5.13;;;20.30;99.90;;;;;;5014344;28;20646;-59
2022/10/31 13:05:46;;;;;;;6.97;5.85;;;20.40;99.90;;;;;;5029778;28;20120;-59
2022/10/31 13:08:19;;;;;;;9.48;5.00;;;20.40;99.90;;;;;;5029020;28;20055;-58